sensor_id;sensor_type;location;lat;lon;timestamp;P1;durP1;ratioP1;P2;durP2;ratioP2
62990;SDS011;49084;48.204;16.202;2023-02-28T00:00:16;10.10;;;5.45;;
62990;SDS011;49084;48.204;16.202;2023-02-28T00:02:43;9.63;;;5.53;;
62990;SDS011;49084;48.204;16.202;2023-02-28T00:05:10;10.88;;;5.28;;
62990;SDS011;49084;48.204;16.202;2023-02-28T00:10:04;10.25;;;4.80;;
62990;SDS011;49084;48.204;16.202;2023-02-28T00:12:32;12.10;;;5.00;;
62990;SDS011;49084;48.204;16.202;2023-02-28T00:14:58;11.50;;;5.88;;
62990;SDS011;49084;48.204;16.202;2023-02-28T00:17:24;14.25;;;5.80;;
62990;SDS011;49084;48.204;16.202;2023-02-28T00:19:50;9.55;;;5.28;;
62990;SDS011;49084;48.204;16.202;2023-02-28T00:22:16;9.45;;;5.28;;
62990;SDS011;49084;48.204;16.202;2023-02-28T00:24:43;9.90;;;5.15;;
62990;SDS011;49084;48.204;16.202;2023-02-28T00:27:10;10.48;;;5.43;;
62990;SDS011;49084;48.204;16.202;2023-02-28T00:29:35;11.73;;;5.63;;
62990;SDS011;49084;48.204;16.202;2023-02-28T00:32:02;9.38;;;5.80;;
62990;SDS011;49084;48.204;16.202;2023-02-28T00:34:28;8.77;;;5.32;;
62990;SDS011;49084;48.204;16.202;2023-02-28T00:36:54;9.02;;;4.57;;
62990;SDS011;49084;48.204;16.202;2023-02-28T00:39:19;9.57;;;5.03;;
62990;SDS011;49084;48.204;16.202;2023-02-28T00:41:45;14.93;;;5.38;;
62990;SDS011;49084;48.204;16.202;2023-02-28T00:44:11;11.15;;;4.78;;
62990;SDS011;49084;48.204;16.202;2023-02-28T00:46:37;24.17;;;9.75;;
62990;SDS011;49084;48.204;16.202;2023-02-28T00:49:02;25.67;;;12.00;;
62990;SDS011;49084;48.204;16.202;2023-02-28T00:51:28;16.35;;;9.52;;
62990;SDS011;49084;48.204;16.202;2023-02-28T00:53:54;17.02;;;6.18;;
62990;SDS011;49084;48.204;16.202;2023-02-28T00:56:19;12.85;;;6.32;;
62990;SDS011;49084;48.204;16.202;2023-02-28T00:58:45;10.38;;;5.50;;
62990;SDS011;49084;48.204;16.202;2023-02-28T01:01:11;12.70;;;5.35;;
62990;SDS011;49084;48.204;16.202;2023-02-28T01:03:37;12.40;;;6.55;;
62990;SDS011;49084;48.204;16.202;2023-02-28T01:06:03;14.07;;;6.95;;
62990;SDS011;49084;48.204;16.202;2023-02-28T01:08:29;9.63;;;5.40;;
62990;SDS011;49084;48.204;16.202;2023-02-28T01:10:55;11.55;;;5.70;;
62990;SDS011;49084;48.204;16.202;2023-02-28T01:13:21;12.68;;;6.15;;
62990;SDS011;49084;48.204;16.202;2023-02-28T01:15:52;10.55;;;5.68;;
62990;SDS011;49084;48.204;16.202;2023-02-28T01:18:20;14.13;;;6.07;;
62990;SDS011;49084;48.204;16.202;2023-02-28T01:20:46;11.13;;;5.22;;
62990;SDS011;49084;48.204;16.202;2023-02-28T01:23:12;13.20;;;6.22;;
62990;SDS011;49084;48.204;16.202;2023-02-28T01:25:38;12.35;;;6.10;;
62990;SDS011;49084;48.204;16.202;2023-02-28T01:28:04;10.27;;;6.20;;
62990;SDS011;49084;48.204;16.202;2023-02-28T01:30:31;10.70;;;5.47;;
62990;SDS011;49084;48.204;16.202;2023-02-28T01:32:57;14.18;;;6.10;;
62990;SDS011;49084;48.204;16.202;2023-02-28T01:35:23;11.48;;;5.80;;
62990;SDS011;49084;48.204;16.202;2023-02-28T01:37:49;9.98;;;5.55;;
62990;SDS011;49084;48.204;16.202;2023-02-28T01:40:14;11.20;;;5.50;;
62990;SDS011;49084;48.204;16.202;2023-02-28T01:42:40;12.98;;;6.15;;
62990;SDS011;49084;48.204;16.202;2023-02-28T01:45:14;11.82;;;5.72;;
62990;SDS011;49084;48.204;16.202;2023-02-28T01:47:46;12.07;;;5.32;;
62990;SDS011;49084;48.204;16.202;2023-02-28T01:50:19;10.88;;;5.40;;
62990;SDS011;49084;48.204;16.202;2023-02-28T01:52:48;11.02;;;5.90;;
62990;SDS011;49084;48.204;16.202;2023-02-28T01:55:15;10.82;;;5.78;;
62990;SDS011;49084;48.204;16.202;2023-02-28T01:57:45;12.68;;;6.30;;
62990;SDS011;49084;48.204;16.202;2023-02-28T02:00:14;12.05;;;5.55;;
62990;SDS011;49084;48.204;16.202;2023-02-28T02:02:42;9.00;;;4.50;;
62990;SDS011;49084;48.204;16.202;2023-02-28T02:05:11;15.18;;;6.35;;
62990;SDS011;49084;48.204;16.202;2023-02-28T02:07:45;13.30;;;5.80;;
62990;SDS011;49084;48.204;16.202;2023-02-28T02:10:20;11.18;;;5.93;;
62990;SDS011;49084;48.204;16.202;2023-02-28T02:16:04;13.80;;;7.03;;
62990;SDS011;49084;48.204;16.202;2023-02-28T02:26:26;14.60;;;5.65;;
62990;SDS011;49084;48.204;16.202;2023-02-28T02:29:20;11.10;;;5.50;;
62990;SDS011;49084;48.204;16.202;2023-02-28T02:37:44;12.80;;;6.07;;
62990;SDS011;49084;48.204;16.202;2023-02-28T02:40:19;11.73;;;5.88;;
62990;SDS011;49084;48.204;16.202;2023-02-28T02:42:49;11.45;;;5.97;;
62990;SDS011;49084;48.204;16.202;2023-02-28T02:45:25;10.15;;;6.43;;
62990;SDS011;49084;48.204;16.202;2023-02-28T02:50:29;14.63;;;6.22;;
62990;SDS011;49084;48.204;16.202;2023-02-28T02:52:59;13.02;;;6.63;;
62990;SDS011;49084;48.204;16.202;2023-02-28T02:55:27;13.60;;;6.57;;
62990;SDS011;49084;48.204;16.202;2023-02-28T02:57:56;13.38;;;6.70;;
62990;SDS011;49084;48.204;16.202;2023-02-28T03:00:34;14.55;;;6.80;;
62990;SDS011;49084;48.204;16.202;2023-02-28T03:03:03;14.27;;;6.50;;
62990;SDS011;49084;48.204;16.202;2023-02-28T03:05:41;11.90;;;6.03;;
62990;SDS011;49084;48.204;16.202;2023-02-28T03:08:11;12.60;;;6.95;;
62990;SDS011;49084;48.204;16.202;2023-02-28T03:10:41;14.57;;;7.65;;
62990;SDS011;49084;48.204;16.202;2023-02-28T03:18:36;12.52;;;6.88;;
62990;SDS011;49084;48.204;16.202;2023-02-28T03:24:07;12.02;;;6.85;;
62990;SDS011;49084;48.204;16.202;2023-02-28T03:27:07;20.33;;;7.78;;
62990;SDS011;49084;48.204;16.202;2023-02-28T03:29:46;13.82;;;6.88;;
62990;SDS011;49084;48.204;16.202;2023-02-28T03:32:18;17.77;;;7.75;;
62990;SDS011;49084;48.204;16.202;2023-02-28T03:35:11;16.60;;;7.60;;
62990;SDS011;49084;48.204;16.202;2023-02-28T03:37:47;16.13;;;7.22;;
62990;SDS011;49084;48.204;16.202;2023-02-28T03:40:19;16.23;;;7.05;;
62990;SDS011;49084;48.204;16.202;2023-02-28T03:42:48;12.07;;;6.15;;
62990;SDS011;49084;48.204;16.202;2023-02-28T03:45:21;14.80;;;7.32;;
62990;SDS011;49084;48.204;16.202;2023-02-28T03:47:58;15.18;;;7.50;;
62990;SDS011;49084;48.204;16.202;2023-02-28T03:53:13;14.05;;;7.40;;
62990;SDS011;49084;48.204;16.202;2023-02-28T03:56:07;18.55;;;7.70;;
62990;SDS011;49084;48.204;16.202;2023-02-28T04:01:57;16.88;;;7.53;;
62990;SDS011;49084;48.204;16.202;2023-02-28T04:04:23;12.68;;;7.00;;
62990;SDS011;49084;48.204;16.202;2023-02-28T04:06:50;17.67;;;8.40;;
62990;SDS011;49084;48.204;16.202;2023-02-28T04:09:17;17.05;;;7.03;;
62990;SDS011;49084;48.204;16.202;2023-02-28T04:11:47;15.20;;;7.70;;
62990;SDS011;49084;48.204;16.202;2023-02-28T04:14:16;18.98;;;8.20;;
62990;SDS011;49084;48.204;16.202;2023-02-28T04:16:43;19.70;;;8.23;;
62990;SDS011;49084;48.204;16.202;2023-02-28T04:19:10;18.52;;;7.93;;
62990;SDS011;49084;48.204;16.202;2023-02-28T04:21:41;18.23;;;7.88;;
62990;SDS011;49084;48.204;16.202;2023-02-28T04:24:15;15.88;;;8.05;;
62990;SDS011;49084;48.204;16.202;2023-02-28T04:26:43;19.08;;;7.63;;
62990;SDS011;49084;48.204;16.202;2023-02-28T04:29:11;17.75;;;8.88;;
62990;SDS011;49084;48.204;16.202;2023-02-28T04:31:38;20.65;;;7.88;;
62990;SDS011;49084;48.204;16.202;2023-02-28T04:34:04;18.05;;;7.88;;
62990;SDS011;49084;48.204;16.202;2023-02-28T04:36:30;15.68;;;7.75;;
62990;SDS011;49084;48.204;16.202;2023-02-28T04:38:56;14.90;;;7.57;;
62990;SDS011;49084;48.204;16.202;2023-02-28T04:41:22;17.58;;;8.10;;
62990;SDS011;49084;48.204;16.202;2023-02-28T04:43:48;16.75;;;8.30;;
62990;SDS011;49084;48.204;16.202;2023-02-28T04:46:15;14.73;;;8.38;;
62990;SDS011;49084;48.204;16.202;2023-02-28T04:48:42;20.25;;;9.15;;
62990;SDS011;49084;48.204;16.202;2023-02-28T04:51:10;15.10;;;7.60;;
62990;SDS011;49084;48.204;16.202;2023-02-28T04:53:38;19.42;;;8.77;;
62990;SDS011;49084;48.204;16.202;2023-02-28T04:56:05;21.33;;;8.33;;
62990;SDS011;49084;48.204;16.202;2023-02-28T04:58:32;20.55;;;9.07;;
62990;SDS011;49084;48.204;16.202;2023-02-28T05:01:06;18.92;;;8.32;;
62990;SDS011;49084;48.204;16.202;2023-02-28T05:03:41;15.90;;;8.13;;
62990;SDS011;49084;48.204;16.202;2023-02-28T05:06:08;17.00;;;9.05;;
62990;SDS011;49084;48.204;16.202;2023-02-28T05:08:34;20.30;;;9.27;;
62990;SDS011;49084;48.204;16.202;2023-02-28T05:11:00;18.77;;;8.10;;
62990;SDS011;49084;48.204;16.202;2023-02-28T05:13:27;18.05;;;9.65;;
62990;SDS011;49084;48.204;16.202;2023-02-28T05:15:53;19.75;;;9.18;;
62990;SDS011;49084;48.204;16.202;2023-02-28T05:18:19;20.38;;;9.38;;
62990;SDS011;49084;48.204;16.202;2023-02-28T05:20:44;19.25;;;9.07;;
62990;SDS011;49084;48.204;16.202;2023-02-28T05:23:11;21.63;;;10.60;;
62990;SDS011;49084;48.204;16.202;2023-02-28T05:25:38;19.63;;;9.15;;
62990;SDS011;49084;48.204;16.202;2023-02-28T05:28:04;17.98;;;9.50;;
62990;SDS011;49084;48.204;16.202;2023-02-28T05:30:30;19.75;;;8.50;;
62990;SDS011;49084;48.204;16.202;2023-02-28T05:32:56;17.38;;;9.15;;
62990;SDS011;49084;48.204;16.202;2023-02-28T05:35:23;23.67;;;9.77;;
62990;SDS011;49084;48.204;16.202;2023-02-28T05:37:49;21.45;;;10.68;;
62990;SDS011;49084;48.204;16.202;2023-02-28T05:40:14;24.75;;;10.60;;
62990;SDS011;49084;48.204;16.202;2023-02-28T05:42:41;21.50;;;9.52;;
62990;SDS011;49084;48.204;16.202;2023-02-28T05:45:07;19.85;;;10.02;;
62990;SDS011;49084;48.204;16.202;2023-02-28T05:47:34;17.70;;;8.80;;
62990;SDS011;49084;48.204;16.202;2023-02-28T05:50:00;20.13;;;9.02;;
62990;SDS011;49084;48.204;16.202;2023-02-28T05:52:26;18.35;;;9.20;;
62990;SDS011;49084;48.204;16.202;2023-02-28T05:54:53;22.52;;;10.35;;
62990;SDS011;49084;48.204;16.202;2023-02-28T05:57:18;18.90;;;9.35;;
62990;SDS011;49084;48.204;16.202;2023-02-28T05:59:44;19.17;;;8.90;;
62990;SDS011;49084;48.204;16.202;2023-02-28T06:02:13;19.95;;;8.77;;
62990;SDS011;49084;48.204;16.202;2023-02-28T06:04:41;23.00;;;9.88;;
62990;SDS011;49084;48.204;16.202;2023-02-28T06:07:08;20.88;;;9.68;;
62990;SDS011;49084;48.204;16.202;2023-02-28T06:09:34;17.15;;;9.40;;
62990;SDS011;49084;48.204;16.202;2023-02-28T06:12:00;21.55;;;9.63;;
62990;SDS011;49084;48.204;16.202;2023-02-28T06:14:28;17.55;;;9.35;;
62990;SDS011;49084;48.204;16.202;2023-02-28T06:16:56;20.83;;;10.57;;
62990;SDS011;49084;48.204;16.202;2023-02-28T06:19:22;21.65;;;10.63;;
62990;SDS011;49084;48.204;16.202;2023-02-28T06:21:50;23.07;;;10.53;;
62990;SDS011;49084;48.204;16.202;2023-02-28T06:24:20;27.80;;;11.25;;
62990;SDS011;49084;48.204;16.202;2023-02-28T06:26:47;23.95;;;10.70;;
62990;SDS011;49084;48.204;16.202;2023-02-28T06:29:13;21.67;;;10.98;;
62990;SDS011;49084;48.204;16.202;2023-02-28T06:31:42;20.77;;;10.60;;
62990;SDS011;49084;48.204;16.202;2023-02-28T06:34:09;21.45;;;9.73;;
62990;SDS011;49084;48.204;16.202;2023-02-28T06:36:36;20.48;;;10.98;;
62990;SDS011;49084;48.204;16.202;2023-02-28T06:39:06;21.90;;;10.40;;
62990;SDS011;49084;48.204;16.202;2023-02-28T06:41:32;21.30;;;11.43;;
62990;SDS011;49084;48.204;16.202;2023-02-28T06:44:02;22.02;;;10.65;;
62990;SDS011;49084;48.204;16.202;2023-02-28T06:46:36;22.05;;;10.93;;
62990;SDS011;49084;48.204;16.202;2023-02-28T06:49:04;21.42;;;10.48;;
62990;SDS011;49084;48.204;16.202;2023-02-28T06:51:30;23.25;;;11.57;;
62990;SDS011;49084;48.204;16.202;2023-02-28T06:53:55;26.33;;;11.90;;
62990;SDS011;49084;48.204;16.202;2023-02-28T06:56:21;27.90;;;11.48;;
62990;SDS011;49084;48.204;16.202;2023-02-28T06:58:47;24.23;;;10.98;;
62990;SDS011;49084;48.204;16.202;2023-02-28T07:01:14;27.15;;;12.10;;
62990;SDS011;49084;48.204;16.202;2023-02-28T07:03:41;25.70;;;11.43;;
62990;SDS011;49084;48.204;16.202;2023-02-28T07:06:06;20.58;;;11.55;;
62990;SDS011;49084;48.204;16.202;2023-02-28T07:08:33;21.27;;;11.07;;
62990;SDS011;49084;48.204;16.202;2023-02-28T07:10:59;23.50;;;10.95;;
62990;SDS011;49084;48.204;16.202;2023-02-28T07:13:25;20.95;;;10.90;;
62990;SDS011;49084;48.204;16.202;2023-02-28T07:15:54;23.05;;;11.27;;
62990;SDS011;49084;48.204;16.202;2023-02-28T07:18:25;30.10;;;12.02;;
62990;SDS011;49084;48.204;16.202;2023-02-28T07:20:51;25.33;;;11.52;;
62990;SDS011;49084;48.204;16.202;2023-02-28T07:23:17;26.98;;;11.35;;
62990;SDS011;49084;48.204;16.202;2023-02-28T07:25:43;22.45;;;11.38;;
62990;SDS011;49084;48.204;16.202;2023-02-28T07:28:09;21.25;;;11.15;;
62990;SDS011;49084;48.204;16.202;2023-02-28T07:30:34;23.55;;;10.77;;
62990;SDS011;49084;48.204;16.202;2023-02-28T07:33:00;22.00;;;11.00;;
62990;SDS011;49084;48.204;16.202;2023-02-28T07:35:26;21.80;;;11.75;;
62990;SDS011;49084;48.204;16.202;2023-02-28T07:37:51;23.20;;;12.75;;
62990;SDS011;49084;48.204;16.202;2023-02-28T07:40:17;24.33;;;12.43;;
62990;SDS011;49084;48.204;16.202;2023-02-28T07:42:43;22.63;;;12.77;;
62990;SDS011;49084;48.204;16.202;2023-02-28T07:45:09;23.00;;;12.40;;
62990;SDS011;49084;48.204;16.202;2023-02-28T07:47:37;25.00;;;13.68;;
62990;SDS011;49084;48.204;16.202;2023-02-28T07:50:04;24.45;;;12.98;;
62990;SDS011;49084;48.204;16.202;2023-02-28T07:52:31;24.83;;;12.68;;
62990;SDS011;49084;48.204;16.202;2023-02-28T07:54:57;26.58;;;13.27;;
62990;SDS011;49084;48.204;16.202;2023-02-28T07:57:22;26.00;;;12.38;;
62990;SDS011;49084;48.204;16.202;2023-02-28T07:59:48;26.90;;;13.07;;
62990;SDS011;49084;48.204;16.202;2023-02-28T08:02:15;29.30;;;14.25;;
62990;SDS011;49084;48.204;16.202;2023-02-28T08:04:42;25.25;;;12.73;;
62990;SDS011;49084;48.204;16.202;2023-02-28T08:07:09;24.58;;;13.80;;
62990;SDS011;49084;48.204;16.202;2023-02-28T08:12:04;24.83;;;12.93;;
62990;SDS011;49084;48.204;16.202;2023-02-28T08:14:30;20.67;;;12.23;;
62990;SDS011;49084;48.204;16.202;2023-02-28T08:16:55;21.70;;;12.38;;
62990;SDS011;49084;48.204;16.202;2023-02-28T08:19:21;25.70;;;11.77;;
62990;SDS011;49084;48.204;16.202;2023-02-28T08:21:47;20.35;;;12.50;;
62990;SDS011;49084;48.204;16.202;2023-02-28T08:24:12;23.38;;;12.38;;
62990;SDS011;49084;48.204;16.202;2023-02-28T08:26:38;26.80;;;12.77;;
62990;SDS011;49084;48.204;16.202;2023-02-28T08:29:04;25.38;;;12.13;;
62990;SDS011;49084;48.204;16.202;2023-02-28T08:31:29;25.15;;;12.38;;
62990;SDS011;49084;48.204;16.202;2023-02-28T08:33:55;19.58;;;11.45;;
62990;SDS011;49084;48.204;16.202;2023-02-28T08:36:23;21.35;;;12.23;;
62990;SDS011;49084;48.204;16.202;2023-02-28T08:38:50;20.02;;;12.10;;
62990;SDS011;49084;48.204;16.202;2023-02-28T08:41:15;24.52;;;11.20;;
62990;SDS011;49084;48.204;16.202;2023-02-28T08:43:41;17.10;;;10.30;;
62990;SDS011;49084;48.204;16.202;2023-02-28T08:46:07;19.13;;;10.70;;
62990;SDS011;49084;48.204;16.202;2023-02-28T08:48:36;17.88;;;10.38;;
62990;SDS011;49084;48.204;16.202;2023-02-28T08:51:08;20.33;;;10.50;;
62990;SDS011;49084;48.204;16.202;2023-02-28T08:53:43;19.50;;;11.38;;
62990;SDS011;49084;48.204;16.202;2023-02-28T08:56:10;19.48;;;11.82;;
62990;SDS011;49084;48.204;16.202;2023-02-28T08:58:38;19.05;;;11.05;;
62990;SDS011;49084;48.204;16.202;2023-02-28T09:01:09;20.85;;;10.85;;
62990;SDS011;49084;48.204;16.202;2023-02-28T09:03:36;21.98;;;11.93;;
62990;SDS011;49084;48.204;16.202;2023-02-28T09:06:01;21.35;;;11.07;;
62990;SDS011;49084;48.204;16.202;2023-02-28T09:08:28;21.17;;;10.85;;
62990;SDS011;49084;48.204;16.202;2023-02-28T09:10:55;19.00;;;11.07;;
62990;SDS011;49084;48.204;16.202;2023-02-28T09:13:22;17.75;;;11.00;;
62990;SDS011;49084;48.204;16.202;2023-02-28T09:15:49;20.35;;;11.50;;
62990;SDS011;49084;48.204;16.202;2023-02-28T09:18:15;22.33;;;11.88;;
62990;SDS011;49084;48.204;16.202;2023-02-28T09:20:41;18.30;;;10.73;;
62990;SDS011;49084;48.204;16.202;2023-02-28T09:23:08;16.67;;;10.45;;
62990;SDS011;49084;48.204;16.202;2023-02-28T09:25:35;18.92;;;10.73;;
62990;SDS011;49084;48.204;16.202;2023-02-28T09:28:01;18.85;;;11.10;;
62990;SDS011;49084;48.204;16.202;2023-02-28T09:30:27;17.90;;;10.35;;
62990;SDS011;49084;48.204;16.202;2023-02-28T09:32:53;18.10;;;10.32;;
62990;SDS011;49084;48.204;16.202;2023-02-28T09:35:23;18.88;;;11.32;;
62990;SDS011;49084;48.204;16.202;2023-02-28T09:37:51;16.02;;;10.43;;
62990;SDS011;49084;48.204;16.202;2023-02-28T09:40:18;17.98;;;10.18;;
62990;SDS011;49084;48.204;16.202;2023-02-28T09:42:47;16.20;;;10.63;;
62990;SDS011;49084;48.204;16.202;2023-02-28T09:48:06;15.93;;;10.25;;
62990;SDS011;49084;48.204;16.202;2023-02-28T09:53:22;19.80;;;10.20;;
62990;SDS011;49084;48.204;16.202;2023-02-28T09:56:10;17.33;;;10.57;;
62990;SDS011;49084;48.204;16.202;2023-02-28T09:58:48;17.00;;;10.40;;
62990;SDS011;49084;48.204;16.202;2023-02-28T10:01:23;18.25;;;11.30;;
62990;SDS011;49084;48.204;16.202;2023-02-28T10:04:02;18.17;;;10.82;;
62990;SDS011;49084;48.204;16.202;2023-02-28T10:06:50;17.48;;;10.70;;
62990;SDS011;49084;48.204;16.202;2023-02-28T10:11:50;21.63;;;11.52;;
62990;SDS011;49084;48.204;16.202;2023-02-28T10:14:19;19.50;;;11.02;;
62990;SDS011;49084;48.204;16.202;2023-02-28T10:16:48;17.52;;;10.88;;
62990;SDS011;49084;48.204;16.202;2023-02-28T10:29:40;17.73;;;10.65;;
62990;SDS011;49084;48.204;16.202;2023-02-28T10:32:09;18.88;;;11.88;;
62990;SDS011;49084;48.204;16.202;2023-02-28T10:34:39;16.98;;;11.10;;
62990;SDS011;49084;48.204;16.202;2023-02-28T10:37:05;20.10;;;12.13;;
62990;SDS011;49084;48.204;16.202;2023-02-28T10:39:41;16.30;;;11.32;;
62990;SDS011;49084;48.204;16.202;2023-02-28T10:42:22;18.80;;;11.38;;
62990;SDS011;49084;48.204;16.202;2023-02-28T10:45:06;14.63;;;11.13;;
62990;SDS011;49084;48.204;16.202;2023-02-28T10:47:48;18.90;;;10.68;;
62990;SDS011;49084;48.204;16.202;2023-02-28T11:01:24;17.20;;;11.43;;
62990;SDS011;49084;48.204;16.202;2023-02-28T11:04:00;19.30;;;11.05;;
62990;SDS011;49084;48.204;16.202;2023-02-28T11:06:28;19.20;;;11.95;;
62990;SDS011;49084;48.204;16.202;2023-02-28T11:08:57;15.13;;;10.82;;
62990;SDS011;49084;48.204;16.202;2023-02-28T11:11:27;19.17;;;11.50;;
62990;SDS011;49084;48.204;16.202;2023-02-28T11:13:57;17.58;;;11.00;;
62990;SDS011;49084;48.204;16.202;2023-02-28T11:16:35;17.30;;;11.60;;
62990;SDS011;49084;48.204;16.202;2023-02-28T11:19:03;19.02;;;11.27;;
62990;SDS011;49084;48.204;16.202;2023-02-28T11:21:33;19.15;;;10.73;;
62990;SDS011;49084;48.204;16.202;2023-02-28T11:26:52;16.58;;;10.35;;
62990;SDS011;49084;48.204;16.202;2023-02-28T11:31:49;16.90;;;11.30;;
62990;SDS011;49084;48.204;16.202;2023-02-28T11:34:38;17.25;;;10.68;;
62990;SDS011;49084;48.204;16.202;2023-02-28T11:37:09;21.92;;;11.20;;
62990;SDS011;49084;48.204;16.202;2023-02-28T11:39:44;19.20;;;11.98;;
62990;SDS011;49084;48.204;16.202;2023-02-28T11:51:02;23.67;;;11.85;;
62990;SDS011;49084;48.204;16.202;2023-02-28T12:04:26;16.83;;;10.05;;
62990;SDS011;49084;48.204;16.202;2023-02-28T12:07:36;15.25;;;10.45;;
62990;SDS011;49084;48.204;16.202;2023-02-28T12:10:25;25.13;;;10.90;;
62990;SDS011;49084;48.204;16.202;2023-02-28T12:13:12;14.23;;;10.23;;
62990;SDS011;49084;48.204;16.202;2023-02-28T12:20:59;16.77;;;10.82;;
62990;SDS011;49084;48.204;16.202;2023-02-28T12:26:53;21.63;;;12.00;;
62990;SDS011;49084;48.204;16.202;2023-02-28T12:31:54;15.13;;;10.68;;
62990;SDS011;49084;48.204;16.202;2023-02-28T12:37:35;22.85;;;10.38;;
62990;SDS011;49084;48.204;16.202;2023-02-28T12:40:13;16.33;;;10.30;;
62990;SDS011;49084;48.204;16.202;2023-02-28T12:42:56;16.77;;;10.65;;
62990;SDS011;49084;48.204;16.202;2023-02-28T12:45:27;14.73;;;9.90;;
62990;SDS011;49084;48.204;16.202;2023-02-28T12:47:58;18.77;;;11.60;;
62990;SDS011;49084;48.204;16.202;2023-02-28T12:50:27;13.02;;;9.65;;
62990;SDS011;49084;48.204;16.202;2023-02-28T12:58:31;14.82;;;9.40;;
62990;SDS011;49084;48.204;16.202;2023-02-28T13:09:31;18.65;;;9.98;;
62990;SDS011;49084;48.204;16.202;2023-02-28T13:11:57;13.40;;;9.10;;
62990;SDS011;49084;48.204;16.202;2023-02-28T13:19:37;17.75;;;10.50;;
62990;SDS011;49084;48.204;16.202;2023-02-28T13:22:21;15.82;;;8.77;;
62990;SDS011;49084;48.204;16.202;2023-02-28T13:26:06;14.63;;;9.18;;
62990;SDS011;49084;48.204;16.202;2023-02-28T13:28:08;11.43;;;7.47;;
62990;SDS011;49084;48.204;16.202;2023-02-28T13:33:30;12.77;;;6.75;;
62990;SDS011;49084;48.204;16.202;2023-02-28T13:39:01;10.50;;;8.00;;
62990;SDS011;49084;48.204;16.202;2023-02-28T13:46:32;11.57;;;6.72;;
62990;SDS011;49084;48.204;16.202;2023-02-28T14:05:32;10.35;;;7.03;;
62990;SDS011;49084;48.204;16.202;2023-02-28T14:08:03;12.63;;;7.40;;
62990;SDS011;49084;48.204;16.202;2023-02-28T14:13:42;14.18;;;7.13;;
62990;SDS011;49084;48.204;16.202;2023-02-28T14:16:10;11.45;;;7.20;;
62990;SDS011;49084;48.204;16.202;2023-02-28T14:18:42;12.98;;;7.32;;
62990;SDS011;49084;48.204;16.202;2023-02-28T14:37:09;11.73;;;6.32;;
62990;SDS011;49084;48.204;16.202;2023-02-28T14:39:41;11.57;;;7.07;;
62990;SDS011;49084;48.204;16.202;2023-02-28T14:44:56;14.55;;;7.63;;
62990;SDS011;49084;48.204;16.202;2023-02-28T14:49:48;13.40;;;6.03;;
62990;SDS011;49084;48.204;16.202;2023-02-28T14:52:15;10.30;;;6.20;;
62990;SDS011;49084;48.204;16.202;2023-02-28T14:54:45;14.45;;;6.70;;
62990;SDS011;49084;48.204;16.202;2023-02-28T14:59:56;14.73;;;7.63;;
62990;SDS011;49084;48.204;16.202;2023-02-28T15:02:58;14.93;;;7.80;;
62990;SDS011;49084;48.204;16.202;2023-02-28T15:05:29;12.55;;;7.07;;
62990;SDS011;49084;48.204;16.202;2023-02-28T15:10:38;15.55;;;7.18;;
62990;SDS011;49084;48.204;16.202;2023-02-28T15:13:06;11.02;;;7.55;;
62990;SDS011;49084;48.204;16.202;2023-02-28T15:23:45;10.55;;;7.90;;
62990;SDS011;49084;48.204;16.202;2023-02-28T15:26:32;15.23;;;8.18;;
62990;SDS011;49084;48.204;16.202;2023-02-28T15:29:06;12.38;;;7.97;;
62990;SDS011;49084;48.204;16.202;2023-02-28T15:31:45;14.20;;;7.97;;
62990;SDS011;49084;48.204;16.202;2023-02-28T15:34:29;13.68;;;7.53;;
62990;SDS011;49084;48.204;16.202;2023-02-28T15:37:23;16.75;;;7.82;;
62990;SDS011;49084;48.204;16.202;2023-02-28T15:45:32;15.00;;;7.63;;
62990;SDS011;49084;48.204;16.202;2023-02-28T15:48:03;13.38;;;7.03;;
62990;SDS011;49084;48.204;16.202;2023-02-28T15:50:30;16.02;;;8.35;;
62990;SDS011;49084;48.204;16.202;2023-02-28T15:52:56;18.65;;;10.13;;
62990;SDS011;49084;48.204;16.202;2023-02-28T15:55:23;11.27;;;7.05;;
62990;SDS011;49084;48.204;16.202;2023-02-28T15:57:54;12.35;;;8.45;;
62990;SDS011;49084;48.204;16.202;2023-02-28T16:00:24;11.23;;;7.80;;
62990;SDS011;49084;48.204;16.202;2023-02-28T16:02:52;11.65;;;8.48;;
62990;SDS011;49084;48.204;16.202;2023-02-28T16:07:58;14.23;;;7.75;;
62990;SDS011;49084;48.204;16.202;2023-02-28T16:10:43;17.48;;;8.93;;
62990;SDS011;49084;48.204;16.202;2023-02-28T16:13:10;13.88;;;8.45;;
62990;SDS011;49084;48.204;16.202;2023-02-28T16:15:41;12.70;;;7.78;;
62990;SDS011;49084;48.204;16.202;2023-02-28T16:18:11;13.93;;;9.63;;
62990;SDS011;49084;48.204;16.202;2023-02-28T16:20:38;17.13;;;10.52;;
62990;SDS011;49084;48.204;16.202;2023-02-28T16:23:04;13.82;;;9.32;;
62990;SDS011;49084;48.204;16.202;2023-02-28T16:25:34;16.20;;;8.70;;
62990;SDS011;49084;48.204;16.202;2023-02-28T16:28:01;19.27;;;8.90;;
62990;SDS011;49084;48.204;16.202;2023-02-28T16:30:28;17.40;;;9.68;;
62990;SDS011;49084;48.204;16.202;2023-02-28T16:35:23;18.33;;;8.90;;
62990;SDS011;49084;48.204;16.202;2023-02-28T16:37:50;11.48;;;8.32;;
62990;SDS011;49084;48.204;16.202;2023-02-28T16:40:18;15.63;;;8.80;;
62990;SDS011;49084;48.204;16.202;2023-02-28T16:42:49;13.73;;;8.60;;
62990;SDS011;49084;48.204;16.202;2023-02-28T16:45:25;13.85;;;7.85;;
62990;SDS011;49084;48.204;16.202;2023-02-28T16:47:53;17.17;;;8.88;;
62990;SDS011;49084;48.204;16.202;2023-02-28T16:50:20;16.17;;;9.13;;
62990;SDS011;49084;48.204;16.202;2023-02-28T16:52:48;15.48;;;9.25;;
62990;SDS011;49084;48.204;16.202;2023-02-28T16:55:15;14.85;;;8.40;;
62990;SDS011;49084;48.204;16.202;2023-02-28T16:57:41;16.30;;;9.10;;
62990;SDS011;49084;48.204;16.202;2023-02-28T17:00:08;13.10;;;7.88;;
62990;SDS011;49084;48.204;16.202;2023-02-28T17:02:37;14.13;;;7.70;;
62990;SDS011;49084;48.204;16.202;2023-02-28T17:05:04;19.27;;;9.23;;
62990;SDS011;49084;48.204;16.202;2023-02-28T17:07:30;15.07;;;8.82;;
62990;SDS011;49084;48.204;16.202;2023-02-28T17:09:55;21.30;;;7.82;;
62990;SDS011;49084;48.204;16.202;2023-02-28T17:12:21;13.02;;;8.07;;
62990;SDS011;49084;48.204;16.202;2023-02-28T17:14:47;13.68;;;8.00;;
62990;SDS011;49084;48.204;16.202;2023-02-28T17:17:15;15.32;;;8.25;;
62990;SDS011;49084;48.204;16.202;2023-02-28T17:19:44;16.95;;;8.07;;
62990;SDS011;49084;48.204;16.202;2023-02-28T17:22:10;12.98;;;8.45;;
62990;SDS011;49084;48.204;16.202;2023-02-28T17:24:36;15.23;;;8.27;;
62990;SDS011;49084;48.204;16.202;2023-02-28T17:27:02;17.70;;;8.32;;
62990;SDS011;49084;48.204;16.202;2023-02-28T17:29:29;13.55;;;7.65;;
62990;SDS011;49084;48.204;16.202;2023-02-28T17:31:54;13.90;;;8.10;;
62990;SDS011;49084;48.204;16.202;2023-02-28T17:34:20;12.32;;;7.70;;
62990;SDS011;49084;48.204;16.202;2023-02-28T17:36:48;14.48;;;8.57;;
62990;SDS011;49084;48.204;16.202;2023-02-28T17:39:15;19.15;;;8.30;;
62990;SDS011;49084;48.204;16.202;2023-02-28T17:41:52;20.95;;;9.60;;
62990;SDS011;49084;48.204;16.202;2023-02-28T17:44:19;14.57;;;7.85;;
62990;SDS011;49084;48.204;16.202;2023-02-28T17:46:47;14.93;;;8.43;;
62990;SDS011;49084;48.204;16.202;2023-02-28T17:49:14;15.63;;;7.75;;
62990;SDS011;49084;48.204;16.202;2023-02-28T17:51:41;15.02;;;8.90;;